createdAt,value
2018-09-09T00:01:18.247Z,13.30
2018-09-09T00:03:45.394Z,13.30
2018-09-09T00:06:12.551Z,13.20
2018-09-09T00:08:39.718Z,13.30
2018-09-09T00:11:06.872Z,13.30
2018-09-09T00:13:34.016Z,13.30
2018-09-09T00:16:01.192Z,13.30
2018-09-09T00:18:28.323Z,13.30
2018-09-09T00:20:55.457Z,13.20
2018-09-09T00:23:22.606Z,13.20
2018-09-09T00:25:49.754Z,13.20
2018-09-09T00:28:16.890Z,13.10
2018-09-09T00:30:44.047Z,13.10
2018-09-09T00:33:11.188Z,13.10
2018-09-09T00:35:38.332Z,13.00
2018-09-09T00:38:05.554Z,13.00
2018-09-09T00:40:32.724Z,12.90
2018-09-09T00:42:59.896Z,12.90
2018-09-09T00:45:27.074Z,12.80
2018-09-09T00:47:54.244Z,12.70
2018-09-09T00:51:28.214Z,12.70
2018-09-09T00:53:55.375Z,12.80
2018-09-09T00:56:22.550Z,12.80
2018-09-09T00:58:49.712Z,12.70
2018-09-09T01:01:17.118Z,12.60
2018-09-09T01:03:45.503Z,12.50
2018-09-09T01:06:12.713Z,12.50
2018-09-09T01:08:39.877Z,12.60
2018-09-09T01:11:07.608Z,12.50
2018-09-09T01:13:34.975Z,12.50
2018-09-09T01:16:02.147Z,12.50
2018-09-09T01:18:29.628Z,12.50
2018-09-09T01:20:56.821Z,12.50
2018-09-09T01:23:23.994Z,12.40
2018-09-09T01:25:51.175Z,12.40
2018-09-09T01:28:18.370Z,12.40
2018-09-09T01:30:45.614Z,12.50
2018-09-09T01:33:12.832Z,12.50
2018-09-09T01:35:40.013Z,12.50
2018-09-09T01:38:07.176Z,12.50
2018-09-09T01:40:34.372Z,12.50
2018-09-09T01:43:01.625Z,12.50
2018-09-09T01:45:28.827Z,12.40
2018-09-09T01:47:56.030Z,12.30
2018-09-09T01:50:23.236Z,12.20
2018-09-09T01:52:50.429Z,12.10
2018-09-09T01:55:17.625Z,12.10
2018-09-09T01:57:44.823Z,12.10
2018-09-09T02:00:12.059Z,12.10
2018-09-09T02:02:39.255Z,12.10
2018-09-09T02:05:06.516Z,12.10
2018-09-09T02:07:33.720Z,12.10
2018-09-09T02:10:00.922Z,12.00
2018-09-09T02:12:28.132Z,12.10
2018-09-09T02:14:55.360Z,12.20
2018-09-09T02:17:22.560Z,12.20
2018-09-09T02:19:49.748Z,12.20
2018-09-09T02:22:16.955Z,12.20
2018-09-09T02:24:44.151Z,12.10
2018-09-09T02:27:11.347Z,12.00
2018-09-09T02:29:38.543Z,12.00
2018-09-09T02:32:05.750Z,12.00
2018-09-09T02:34:32.949Z,11.90
2018-09-09T02:37:00.147Z,11.90
2018-09-09T02:39:27.381Z,11.80
2018-09-09T02:41:54.584Z,11.80
2018-09-09T02:44:21.787Z,11.70
2018-09-09T02:46:48.984Z,11.70
2018-09-09T02:49:16.188Z,11.70
2018-09-09T02:51:43.384Z,11.70
2018-09-09T02:54:10.575Z,11.70
2018-09-09T02:56:37.776Z,11.70
2018-09-09T02:59:04.997Z,11.60
2018-09-09T03:01:32.193Z,11.60
2018-09-09T03:03:59.562Z,11.50
2018-09-09T03:06:26.812Z,11.40
2018-09-09T03:08:54.036Z,11.30
2018-09-09T03:11:21.220Z,11.30
2018-09-09T03:13:48.452Z,11.30
2018-09-09T03:16:15.639Z,11.30
2018-09-09T03:18:43.190Z,11.30
2018-09-09T03:21:10.423Z,11.20
2018-09-09T03:23:37.625Z,11.20
2018-09-09T03:26:04.917Z,11.30
2018-09-09T03:28:32.880Z,11.30
2018-09-09T03:31:00.033Z,11.30
2018-09-09T03:33:27.238Z,11.40
2018-09-09T03:35:54.458Z,11.40
2018-09-09T03:38:21.684Z,11.40
2018-09-09T03:40:49.364Z,11.40
2018-09-09T03:43:16.601Z,11.50
2018-09-09T03:45:43.971Z,11.40
2018-09-09T03:48:11.336Z,11.40
2018-09-09T03:50:38.567Z,11.40
2018-09-09T03:53:05.843Z,11.30
2018-09-09T03:55:33.067Z,11.30
2018-09-09T03:58:00.311Z,11.30
2018-09-09T04:00:27.537Z,11.30
2018-09-09T04:02:54.761Z,11.30
2018-09-09T04:05:21.999Z,11.40
2018-09-09T04:07:49.344Z,11.50
2018-09-09T04:10:16.586Z,11.80
2018-09-09T04:12:43.806Z,11.90
2018-09-09T04:15:11.040Z,12.00
2018-09-09T04:17:38.260Z,12.20
2018-09-09T04:20:05.688Z,12.30
2018-09-09T04:22:32.909Z,12.30
2018-09-09T04:25:00.155Z,12.30
2018-09-09T04:27:27.372Z,12.30
2018-09-09T04:29:54.588Z,12.20
2018-09-09T04:32:21.844Z,12.10
2018-09-09T04:34:49.066Z,12.00
2018-09-09T04:37:16.276Z,11.90
2018-09-09T04:39:43.484Z,11.80
2018-09-09T04:42:10.684Z,11.70
2018-09-09T04:44:37.884Z,11.60
2018-09-09T04:47:05.106Z,11.50
2018-09-09T04:49:32.420Z,11.40
2018-09-09T04:51:59.635Z,11.30
2018-09-09T04:54:26.837Z,11.30
2018-09-09T04:56:54.045Z,11.30
2018-09-09T04:59:21.492Z,11.30
2018-09-09T05:01:48.705Z,11.30
2018-09-09T05:04:15.901Z,11.30
2018-09-09T05:06:43.111Z,11.30
2018-09-09T05:09:10.311Z,11.40
2018-09-09T05:11:37.554Z,11.50
2018-09-09T05:14:04.794Z,11.60
2018-09-09T05:16:32.263Z,11.70
2018-09-09T05:18:59.464Z,11.70
2018-09-09T05:21:26.679Z,11.80
2018-09-09T05:23:53.871Z,11.80
2018-09-09T05:26:21.064Z,11.90
2018-09-09T05:28:48.260Z,11.90
2018-09-09T05:31:15.519Z,12.00
2018-09-09T05:33:42.721Z,12.00
2018-09-09T05:36:09.915Z,12.10
2018-09-09T05:38:37.111Z,12.10
2018-09-09T05:41:04.379Z,12.30
2018-09-09T05:43:31.748Z,12.40
2018-09-09T05:45:58.954Z,12.70
2018-09-09T05:48:26.147Z,12.80
2018-09-09T05:50:53.348Z,13.00
2018-09-09T05:53:20.551Z,13.10
2018-09-09T05:55:47.739Z,13.30
2018-09-09T05:58:14.946Z,13.40
2018-09-09T06:00:42.192Z,13.50
2018-09-09T06:03:09.385Z,13.50
2018-09-09T06:05:36.559Z,13.70
2018-09-09T06:08:03.755Z,13.80
2018-09-09T06:10:30.956Z,13.90
2018-09-09T06:12:58.166Z,14.30
2018-09-09T06:15:25.376Z,15.30
2018-09-09T06:17:52.581Z,15.80
2018-09-09T06:20:19.800Z,15.70
2018-09-09T06:22:46.995Z,15.40
2018-09-09T06:25:14.193Z,15.40
2018-09-09T06:27:41.387Z,15.90
2018-09-09T06:30:08.604Z,17.20
2018-09-09T06:32:35.828Z,18.90
2018-09-09T06:35:03.085Z,20.00
2018-09-09T06:37:30.321Z,21.00
2018-09-09T06:39:57.691Z,21.70
2018-09-09T06:42:24.955Z,21.90
2018-09-09T06:44:52.179Z,21.60
2018-09-09T06:47:19.400Z,21.20
2018-09-09T06:49:46.647Z,21.80
2018-09-09T06:52:13.892Z,22.10
2018-09-09T06:54:41.126Z,22.20
2018-09-09T06:57:08.352Z,22.40
2018-09-09T06:59:35.587Z,21.80
2018-09-09T07:02:02.824Z,21.70
2018-09-09T07:04:30.056Z,21.60
2018-09-09T07:06:57.284Z,21.80
2018-09-09T07:09:24.531Z,21.90
2018-09-09T07:11:51.974Z,21.60
2018-09-09T07:14:18.990Z,21.30
2018-09-09T07:16:46.221Z,20.60
2018-09-09T07:19:13.502Z,19.90
2018-09-09T07:21:40.693Z,19.50
2018-09-09T07:24:07.943Z,19.40
2018-09-09T07:26:35.194Z,19.90
2018-09-09T07:29:02.421Z,20.20
2018-09-09T07:31:29.663Z,20.40
2018-09-09T07:33:56.896Z,20.50
2018-09-09T07:36:24.102Z,20.70
2018-09-09T07:38:51.293Z,20.60
2018-09-09T07:41:18.493Z,21.30
2018-09-09T07:43:45.747Z,21.90
2018-09-09T07:46:12.921Z,22.90
2018-09-09T07:48:40.116Z,24.30
2018-09-09T07:51:07.339Z,25.00
2018-09-09T07:53:34.568Z,25.90
2018-09-09T07:56:01.776Z,26.50
2018-09-09T07:58:28.977Z,27.00
2018-09-09T08:00:56.189Z,26.80
2018-09-09T08:03:23.376Z,26.50
2018-09-09T08:05:50.563Z,26.10
2018-09-09T08:08:17.749Z,25.90
2018-09-09T08:10:44.968Z,26.00
2018-09-09T08:13:12.335Z,26.20
2018-09-09T08:15:39.536Z,26.10
2018-09-09T08:18:06.727Z,26.10
2018-09-09T08:20:33.920Z,25.40
2018-09-09T08:23:01.126Z,25.10
2018-09-09T08:25:28.316Z,24.40
2018-09-09T08:27:55.533Z,24.50
2018-09-09T08:30:22.732Z,25.10
2018-09-09T08:32:49.953Z,25.70
2018-09-09T08:35:17.194Z,25.50
2018-09-09T08:37:44.409Z,25.70
2018-09-09T08:40:11.611Z,25.80
2018-09-09T08:42:38.813Z,26.20
2018-09-09T08:45:06.040Z,26.10
2018-09-09T08:47:33.273Z,27.10
2018-09-09T08:50:00.505Z,27.80
2018-09-09T08:52:27.730Z,27.70
2018-09-09T08:54:54.938Z,28.30
2018-09-09T08:57:22.166Z,27.90
2018-09-09T08:59:49.541Z,27.70
2018-09-09T09:02:16.764Z,27.90
2018-09-09T09:04:43.975Z,28.40
2018-09-09T09:07:11.192Z,28.90
2018-09-09T09:09:38.421Z,29.40
2018-09-09T09:12:09.348Z,30.00
2018-09-09T09:14:36.738Z,30.00
2018-09-09T09:17:04.205Z,30.60
2018-09-09T09:19:31.424Z,29.60
2018-09-09T09:21:58.631Z,29.20
2018-09-09T09:24:26.206Z,29.30
2018-09-09T09:26:53.552Z,30.20
2018-09-09T09:29:20.764Z,30.50
2018-09-09T09:31:47.965Z,30.80
2018-09-09T09:34:15.180Z,30.20
2018-09-09T09:36:42.384Z,29.90
2018-09-09T09:39:09.607Z,29.80
2018-09-09T09:41:36.791Z,29.80
2018-09-09T09:44:04.132Z,29.60
2018-09-09T09:46:31.336Z,29.80
2018-09-09T09:48:58.543Z,29.20
2018-09-09T09:51:25.733Z,29.30
2018-09-09T09:53:52.931Z,29.00
2018-09-09T09:56:20.131Z,28.90
2018-09-09T09:58:47.343Z,28.70
2018-09-09T10:01:14.547Z,28.90
2018-09-09T10:03:41.756Z,29.10
2018-09-09T10:06:08.971Z,29.30
2018-09-09T10:08:36.180Z,28.70
2018-09-09T10:11:03.377Z,28.30
2018-09-09T10:13:30.583Z,28.60
2018-09-09T10:15:57.776Z,29.10
2018-09-09T10:18:24.981Z,28.30
2018-09-09T10:20:52.172Z,28.00
2018-09-09T10:23:19.379Z,28.00
2018-09-09T10:25:46.604Z,27.40
2018-09-09T10:28:13.815Z,27.70
2018-09-09T10:30:41.029Z,27.60
2018-09-09T10:33:08.275Z,27.80
2018-09-09T10:35:35.499Z,27.70
2018-09-09T10:38:03.007Z,26.60
2018-09-09T10:40:30.244Z,26.10
2018-09-09T10:42:57.452Z,25.60
2018-09-09T10:45:24.698Z,25.20
2018-09-09T10:47:51.914Z,25.20
2018-09-09T10:50:19.151Z,25.40
2018-09-09T10:52:46.381Z,25.30
2018-09-09T10:55:13.615Z,24.90
2018-09-09T10:57:40.841Z,24.90
2018-09-09T11:00:08.112Z,25.10
2018-09-09T11:02:35.344Z,25.90
2018-09-09T11:05:02.607Z,26.80
2018-09-09T11:07:29.927Z,27.00
2018-09-09T11:09:57.168Z,26.90
2018-09-09T11:12:30.061Z,27.30
2018-09-09T11:14:58.532Z,28.00
2018-09-09T11:17:26.092Z,27.00
2018-09-09T11:19:53.469Z,27.10
2018-09-09T11:22:20.703Z,26.30
2018-09-09T11:24:47.978Z,26.10
2018-09-09T11:27:15.184Z,25.90
2018-09-09T11:29:42.708Z,25.60
2018-09-09T11:32:09.950Z,25.10
2018-09-09T11:34:37.586Z,25.30
2018-09-09T11:37:04.900Z,26.30
2018-09-09T11:39:32.176Z,27.40
2018-09-09T11:41:59.436Z,28.10
2018-09-09T11:44:26.773Z,28.50
2018-09-09T11:46:54.047Z,29.10
2018-09-09T11:49:21.301Z,29.00
2018-09-09T11:51:48.576Z,29.80
2018-09-09T11:54:15.848Z,30.20
2018-09-09T11:56:43.136Z,30.30
2018-09-09T11:59:10.402Z,30.50
2018-09-09T12:01:37.664Z,30.30
2018-09-09T12:04:05.077Z,30.30
2018-09-09T12:06:32.319Z,30.60
2018-09-09T12:08:59.551Z,31.00
2018-09-09T12:11:26.789Z,31.20
2018-09-09T12:13:54.036Z,31.20
2018-09-09T12:16:21.291Z,31.20
2018-09-09T12:18:48.526Z,30.70
2018-09-09T12:21:15.777Z,30.10
2018-09-09T12:23:43.008Z,29.80
2018-09-09T12:26:10.242Z,30.00
2018-09-09T12:28:37.495Z,30.40
2018-09-09T12:31:04.892Z,30.70
2018-09-09T12:33:32.115Z,30.60
2018-09-09T12:35:59.348Z,30.40
2018-09-09T12:38:26.584Z,30.30
2018-09-09T12:40:53.834Z,30.70
2018-09-09T12:43:26.820Z,30.90
2018-09-09T12:45:59.818Z,30.30
2018-09-09T12:48:32.684Z,30.60
2018-09-09T12:51:00.308Z,30.50
2018-09-09T12:53:27.549Z,30.60
2018-09-09T12:55:54.763Z,30.80
2018-09-09T12:58:22.012Z,30.70
2018-09-09T13:00:49.255Z,31.30
2018-09-09T13:03:16.491Z,31.50
2018-09-09T13:05:43.752Z,32.00
2018-09-09T13:08:11.063Z,32.30
2018-09-09T13:10:38.379Z,32.10
2018-09-09T13:13:11.359Z,31.90
2018-09-09T13:15:38.603Z,32.00
2018-09-09T13:18:05.860Z,31.70
2018-09-09T13:20:33.073Z,31.60
2018-09-09T13:23:00.521Z,31.90
2018-09-09T13:25:27.780Z,31.20
2018-09-09T13:27:55.016Z,31.30
2018-09-09T13:30:22.354Z,30.80
2018-09-09T13:32:49.593Z,31.30
2018-09-09T13:35:16.840Z,31.40
2018-09-09T13:37:44.332Z,31.00
2018-09-09T13:40:11.560Z,31.50
2018-09-09T13:42:38.819Z,32.00
2018-09-09T13:45:06.360Z,31.90
2018-09-09T13:47:33.799Z,32.00
2018-09-09T13:50:01.220Z,32.70
2018-09-09T13:52:28.445Z,31.90
2018-09-09T13:54:55.658Z,31.50
2018-09-09T13:57:23.014Z,31.00
2018-09-09T13:59:50.298Z,30.90
2018-09-09T14:02:17.591Z,30.50
2018-09-09T14:04:44.801Z,31.10
2018-09-09T14:07:12.094Z,30.90
2018-09-09T14:09:39.303Z,31.20
2018-09-09T14:12:06.599Z,31.10
2018-09-09T14:14:33.875Z,31.40
2018-09-09T14:17:01.091Z,31.20
2018-09-09T14:19:28.419Z,31.40
2018-09-09T14:21:55.631Z,31.70
2018-09-09T14:24:22.852Z,31.30
2018-09-09T14:26:50.080Z,30.90
2018-09-09T14:29:17.363Z,30.80
2018-09-09T14:31:44.681Z,31.10
2018-09-09T14:34:11.914Z,31.00
2018-09-09T14:36:39.115Z,31.10
2018-09-09T14:39:07.428Z,30.70
2018-09-09T14:41:52.861Z,30.40
2018-09-09T14:44:20.536Z,30.00
2018-09-09T14:46:47.759Z,29.80
2018-09-09T14:49:15.191Z,29.70
2018-09-09T14:51:42.432Z,29.80
2018-09-09T14:54:09.691Z,30.00
2018-09-09T14:56:36.916Z,29.90
2018-09-09T14:59:04.184Z,30.00
2018-09-09T15:01:31.480Z,30.00
2018-09-09T15:03:58.735Z,30.00
2018-09-09T15:06:25.970Z,30.10
2018-09-09T15:08:53.188Z,29.50
2018-09-09T15:11:20.421Z,29.00
2018-09-09T15:13:47.661Z,28.80
2018-09-09T15:16:14.892Z,29.00
2018-09-09T15:18:42.117Z,28.80
2018-09-09T15:21:09.356Z,28.10
2018-09-09T15:23:36.584Z,28.00
2018-09-09T15:26:03.860Z,28.20
2018-09-09T15:28:31.105Z,28.60
2018-09-09T15:30:58.363Z,28.80
2018-09-09T15:33:25.601Z,29.20
2018-09-09T15:35:52.846Z,29.00
2018-09-09T15:38:20.064Z,28.80
2018-09-09T15:40:47.296Z,28.50
2018-09-09T15:43:14.528Z,28.30
2018-09-09T15:45:41.769Z,28.30
2018-09-09T15:48:09.073Z,28.50
2018-09-09T15:50:36.236Z,28.50
2018-09-09T15:53:03.476Z,28.60
2018-09-09T15:55:31.041Z,28.10
2018-09-09T15:57:58.258Z,27.90
2018-09-09T16:00:25.521Z,27.50
2018-09-09T16:02:52.767Z,27.30
2018-09-09T16:05:20.022Z,27.40
2018-09-09T16:07:47.244Z,27.70
2018-09-09T16:10:14.456Z,27.40
2018-09-09T16:12:41.839Z,27.20
2018-09-09T16:15:09.037Z,26.90
2018-09-09T16:17:36.352Z,26.60
2018-09-09T16:20:04.041Z,26.30
2018-09-09T16:22:31.274Z,26.10
2018-09-09T16:24:58.627Z,25.50
2018-09-09T16:27:25.844Z,25.00
2018-09-09T16:29:53.056Z,24.70
2018-09-09T16:32:20.281Z,24.60
2018-09-09T16:34:47.552Z,24.30
2018-09-09T16:37:14.764Z,24.10
2018-09-09T16:39:42.036Z,23.90
2018-09-09T16:42:09.200Z,23.70
2018-09-09T16:44:36.441Z,23.50
2018-09-09T16:47:03.664Z,23.30
2018-09-09T16:49:30.880Z,23.20
2018-09-09T16:51:58.164Z,23.10
2018-09-09T16:54:25.358Z,22.90
2018-09-09T16:56:52.620Z,22.80
2018-09-09T16:59:19.857Z,22.60
2018-09-09T17:01:47.059Z,22.50
2018-09-09T17:04:14.347Z,22.40
2018-09-09T17:06:41.531Z,22.30
2018-09-09T17:09:09.480Z,22.30
2018-09-09T17:11:36.751Z,22.20
2018-09-09T17:14:04.123Z,22.20
2018-09-09T17:16:31.311Z,22.30
2018-09-09T17:18:58.506Z,22.30
2018-09-09T17:21:25.695Z,22.10
2018-09-09T17:23:52.967Z,22.00
2018-09-09T17:26:20.280Z,21.80
2018-09-09T17:28:47.489Z,21.50
2018-09-09T17:31:14.691Z,21.30
2018-09-09T17:33:41.879Z,21.00
2018-09-09T17:36:09.137Z,20.80
2018-09-09T17:38:36.381Z,20.60
2018-09-09T17:41:03.683Z,20.30
2018-09-09T17:43:30.911Z,20.10
2018-09-09T17:45:58.131Z,20.00
2018-09-09T17:48:25.348Z,19.80
2018-09-09T17:50:52.560Z,19.60
2018-09-09T17:53:19.789Z,19.50
2018-09-09T17:55:47.037Z,19.30
2018-09-09T17:58:14.404Z,19.20
2018-09-09T18:00:41.676Z,19.10
2018-09-09T18:03:09.004Z,19.00
2018-09-09T18:05:36.257Z,18.80
2018-09-09T18:08:03.557Z,18.80
2018-09-09T18:10:30.927Z,18.70
2018-09-09T18:12:58.195Z,18.70
2018-09-09T18:15:25.407Z,18.50
2018-09-09T18:17:52.634Z,18.50
2018-09-09T18:20:19.940Z,18.40
2018-09-09T18:22:47.127Z,18.30
2018-09-09T18:25:14.328Z,18.20
2018-09-09T18:27:41.585Z,18.10
2018-09-09T18:30:08.818Z,18.00
2018-09-09T18:32:36.054Z,17.90
2018-09-09T18:35:03.372Z,17.90
2018-09-09T18:37:30.635Z,17.80
2018-09-09T18:39:57.843Z,17.70
2018-09-09T18:42:25.169Z,17.70
2018-09-09T18:44:52.431Z,17.60
2018-09-09T18:47:19.624Z,17.60
2018-09-09T18:49:46.848Z,17.60
2018-09-09T18:52:14.097Z,17.60
2018-09-09T18:54:41.315Z,17.60
2018-09-09T18:57:08.572Z,17.60
2018-09-09T18:59:35.805Z,17.60
2018-09-09T19:02:03.051Z,17.60
2018-09-09T19:04:30.340Z,17.50
2018-09-09T19:06:57.600Z,17.50
2018-09-09T19:09:24.826Z,17.40
2018-09-09T19:11:52.184Z,17.40
2018-09-09T19:14:19.439Z,17.30
2018-09-09T19:16:46.769Z,17.40
2018-09-09T19:19:13.996Z,17.40
2018-09-09T19:21:41.243Z,17.50
2018-09-09T19:24:08.725Z,17.40
2018-09-09T19:26:35.935Z,17.40
2018-09-09T19:29:03.210Z,17.30
2018-09-09T19:31:30.378Z,17.40
2018-09-09T19:33:57.834Z,17.30
2018-09-09T19:36:25.245Z,17.30
2018-09-09T19:38:52.461Z,17.30
2018-09-09T19:41:19.667Z,17.30
2018-09-09T19:43:46.901Z,17.20
2018-09-09T19:46:14.120Z,17.20
2018-09-09T19:48:41.312Z,17.10
2018-09-09T19:51:08.503Z,17.00
2018-09-09T19:53:35.739Z,17.00
2018-09-09T19:56:02.967Z,17.00
2018-09-09T19:58:30.171Z,16.90
2018-09-09T20:00:57.381Z,16.80
2018-09-09T20:03:24.589Z,16.70
2018-09-09T20:05:51.788Z,16.60
2018-09-09T20:08:19.012Z,16.60
2018-09-09T20:10:46.241Z,16.60
2018-09-09T20:13:13.459Z,16.60
2018-09-09T20:15:40.704Z,16.50
2018-09-09T20:18:08.015Z,16.50
2018-09-09T20:20:35.253Z,16.50
2018-09-09T20:23:02.478Z,16.50
2018-09-09T20:25:29.713Z,16.50
2018-09-09T20:27:57.028Z,16.50
2018-09-09T20:30:24.240Z,16.50
2018-09-09T20:32:51.452Z,16.50
2018-09-09T20:35:18.672Z,16.40
2018-09-09T20:37:45.871Z,16.40
2018-09-09T20:40:13.072Z,16.40
2018-09-09T20:42:40.267Z,16.40
2018-09-09T20:45:07.580Z,16.40
2018-09-09T20:47:34.796Z,16.40
2018-09-09T20:50:02.059Z,16.50
2018-09-09T20:52:29.259Z,16.50
2018-09-09T20:54:56.800Z,16.40
2018-09-09T20:57:23.996Z,16.30
2018-09-09T20:59:51.216Z,16.20
2018-09-09T21:02:18.419Z,16.10
2018-09-09T21:04:45.647Z,16.10
2018-09-09T21:07:12.924Z,16.10
2018-09-09T21:09:40.075Z,16.10
2018-09-09T21:12:07.300Z,16.10
2018-09-09T21:14:34.487Z,16.10
2018-09-09T21:17:02.515Z,16.10
2018-09-09T21:19:29.725Z,16.10
2018-09-09T21:21:56.928Z,16.10
2018-09-09T21:24:24.152Z,16.10
2018-09-09T21:26:51.365Z,16.10
2018-09-09T21:29:18.573Z,16.10
2018-09-09T21:31:45.799Z,16.10
2018-09-09T21:34:13.015Z,16.10
2018-09-09T21:36:40.244Z,16.10
2018-09-09T21:39:08.700Z,16.10
2018-09-09T21:41:36.201Z,16.10
2018-09-09T21:44:03.585Z,16.00
2018-09-09T21:46:30.849Z,15.90
2018-09-09T21:48:58.195Z,16.00
2018-09-09T21:51:25.536Z,16.00
2018-09-09T21:53:52.748Z,16.00
2018-09-09T21:56:19.972Z,16.00
2018-09-09T21:59:04.380Z,16.00
2018-09-09T22:01:37.317Z,15.90
2018-09-09T22:04:04.576Z,15.90
2018-09-09T22:06:31.800Z,15.90
2018-09-09T22:08:59.021Z,16.00
2018-09-09T22:11:26.479Z,16.00
2018-09-09T22:13:54.641Z,16.10
2018-09-09T22:16:21.922Z,16.10
2018-09-09T22:18:49.163Z,16.20
2018-09-09T22:21:16.408Z,16.20
2018-09-09T22:23:43.704Z,16.10
2018-09-09T22:26:10.959Z,16.20
2018-09-09T22:28:38.186Z,16.10
2018-09-09T22:31:05.423Z,16.20
2018-09-09T22:33:32.635Z,16.30
2018-09-09T22:35:59.860Z,16.30
2018-09-09T22:38:27.115Z,16.30
2018-09-09T22:40:54.344Z,16.30
2018-09-09T22:43:21.739Z,16.20
2018-09-09T22:45:54.583Z,16.20
2018-09-09T22:48:21.776Z,16.10
2018-09-09T22:50:48.959Z,16.00
2018-09-09T22:53:16.164Z,15.90
2018-09-09T22:55:43.372Z,15.80
2018-09-09T22:58:10.578Z,15.90
2018-09-09T23:00:38.019Z,15.90
2018-09-09T23:03:05.835Z,15.80
2018-09-09T23:05:33.143Z,15.90
2018-09-09T23:08:00.292Z,15.90
2018-09-09T23:10:27.484Z,15.90
2018-09-09T23:12:54.673Z,15.80
2018-09-09T23:15:26.314Z,15.80
2018-09-09T23:17:54.096Z,15.80
2018-09-09T23:20:21.555Z,15.80
2018-09-09T23:22:49.248Z,15.70
2018-09-09T23:25:16.467Z,15.50
2018-09-09T23:27:43.664Z,15.40
2018-09-09T23:30:10.875Z,15.30
2018-09-09T23:32:38.096Z,15.20
2018-09-09T23:35:05.315Z,15.30
2018-09-09T23:37:32.544Z,15.30
2018-09-09T23:39:59.951Z,15.30
2018-09-09T23:42:27.168Z,15.40
2018-09-09T23:44:54.397Z,15.40
2018-09-09T23:47:21.615Z,15.50
2018-09-09T23:49:48.835Z,15.40
2018-09-09T23:52:16.313Z,15.40
2018-09-09T23:54:43.787Z,15.40
2018-09-09T23:57:11.009Z,15.40
2018-09-09T23:59:38.258Z,15.50
